Impacts METAR Board
IDs:

KDCA - Washington/National, VA, US

Updated at: 1100 UTC 09 Jul 2020
Potential Impact None Slight Moderate High
Time 08/23Z 09/00Z 09/01Z 09/02Z 09/03Z 09/04Z 09/05Z 09/06Z 09/07Z 09/08Z 09/09Z 09/10Z 09/11Z
Temp87 85 82 81 80 79 78 78 77 77 76 76 77
Dewpt65 64 70 72 72 72 72 73 72 73 73 73 73
Altim29.93 29.93 29.95 29.96 29.97 29.95 29.94 29.94 29.95 29.95 29.95 29.96 29.98
VIS10 10 10 10 10 10 10 10 10 10 10 10 10
CIG-- -- -- -- -- -- -- -- -- -- -- -- 11
CoverSCTSCTSCTSCTSCTSCTFEWFEWFEWSCTFEWFEWOVC
FltCatVFRVFRVFRVFRVFRVFRVFRVFRVFRVFRVFRVFRMVFR
WX--------------------------
WDir1301301501401401901901300600040
WSpd8 6 5 5 4 8 7 4 0 5 0 0 5
WGst-- -- -- -- -- -- -- -- -- -- -- -- --
Raw hourly METARs
KDCA 082252Z 13008KT 10SM FEW065 FEW190 SCT250 31/18 A2993 RMK AO2 SLP134 CB DSNT E-SE MOV SE T03060183
KDCA 082352Z COR 13006KT 10SM FEW065 SCT250 29/18 A2993 RMK AO2 SLP135 CB DSNT SE MOV SE T02940178 10333 20294 53002
KDCA 090052Z 15005KT 10SM FEW065 SCT250 28/21 A2995 RMK AO2 SLP141 T02780211
KDCA 090152Z 14005KT 10SM FEW070 SCT250 27/22 A2996 RMK AO2 SLP144 T02720222
KDCA 090252Z 14004KT 10SM SCT250 27/22 A2997 RMK AO2 SLP147 T02670222 51012
KDCA 090352Z 19008KT 10SM SCT250 26/22 A2995 RMK AO2 SLP143 T02610222
KDCA 090452Z 19007KT 10SM FEW250 26/22 A2994 RMK AO2 SLP138 T02560222 403330244
KDCA 090552Z 13004KT 10SM FEW250 26/23 A2994 RMK AO2 SLP140 T02560228 10294 20250 55007
KDCA 090652Z 00000KT 10SM FEW250 25/22 A2995 RMK AO2 SLP142 T02500222
KDCA 090752Z 06005KT 10SM SCT120 25/23 A2995 RMK AO2 SLP142 T02500228
KDCA 090852Z 00000KT 10SM FEW120 24/23 A2995 RMK AO2 SLP142 T02440228 50002
KDCA 090952Z 00000KT 10SM FEW040 FEW120 24/23 A2996 RMK AO2 SLP144 T02440228
KDCA 091058Z 04005KT 10SM OVC011 25/23 A2998 RMK AO2 T02500228



Page loaded:  11:51 UTC  |   04:51 AM Pacific  |   05:51 AM Mountain  |   06:51 AM Central  |   07:51 AM Eastern

 

ADVISORIES

FORECASTS

FORECASTS

OBSERVATIONS

USER TOOLS

ABOUT US